sensor_id;sensor_type;location;lat;lon;timestamp;P1;durP1;ratioP1;P2;durP2;ratioP2
12288;SDS011;6207;49.308;7.336;2023-03-13T00:01:00;9.73;;;9.07;;
12288;SDS011;6207;49.308;7.336;2023-03-13T00:03:28;9.20;;;8.60;;
12288;SDS011;6207;49.308;7.336;2023-03-13T00:05:55;9.17;;;8.47;;
12288;SDS011;6207;49.308;7.336;2023-03-13T00:08:23;9.87;;;8.90;;
12288;SDS011;6207;49.308;7.336;2023-03-13T00:10:51;8.70;;;8.30;;
12288;SDS011;6207;49.308;7.336;2023-03-13T00:13:18;13.83;;;8.53;;
12288;SDS011;6207;49.308;7.336;2023-03-13T00:15:44;9.53;;;9.03;;
12288;SDS011;6207;49.308;7.336;2023-03-13T00:18:11;9.63;;;8.70;;
12288;SDS011;6207;49.308;7.336;2023-03-13T00:20:38;8.70;;;8.30;;
12288;SDS011;6207;49.308;7.336;2023-03-13T00:23:05;15.03;;;8.80;;
12288;SDS011;6207;49.308;7.336;2023-03-13T00:25:32;8.93;;;8.23;;
12288;SDS011;6207;49.308;7.336;2023-03-13T00:27:58;9.63;;;9.03;;
12288;SDS011;6207;49.308;7.336;2023-03-13T00:30:25;10.87;;;8.67;;
12288;SDS011;6207;49.308;7.336;2023-03-13T00:32:52;8.80;;;8.40;;
12288;SDS011;6207;49.308;7.336;2023-03-13T00:35:18;8.67;;;8.27;;
12288;SDS011;6207;49.308;7.336;2023-03-13T00:37:45;8.20;;;7.90;;
12288;SDS011;6207;49.308;7.336;2023-03-13T00:40:12;8.80;;;8.40;;
12288;SDS011;6207;49.308;7.336;2023-03-13T00:42:39;9.57;;;8.97;;
12288;SDS011;6207;49.308;7.336;2023-03-13T00:45:06;8.90;;;8.50;;
12288;SDS011;6207;49.308;7.336;2023-03-13T00:47:32;9.90;;;9.03;;
12288;SDS011;6207;49.308;7.336;2023-03-13T00:49:59;13.40;;;9.63;;
12288;SDS011;6207;49.308;7.336;2023-03-13T00:52:26;9.50;;;8.60;;
12288;SDS011;6207;49.308;7.336;2023-03-13T00:54:53;8.77;;;8.23;;
12288;SDS011;6207;49.308;7.336;2023-03-13T00:57:20;8.53;;;8.13;;
12288;SDS011;6207;49.308;7.336;2023-03-13T00:59:47;9.57;;;9.00;;
12288;SDS011;6207;49.308;7.336;2023-03-13T01:02:14;9.47;;;8.83;;
12288;SDS011;6207;49.308;7.336;2023-03-13T01:04:41;8.33;;;7.93;;
12288;SDS011;6207;49.308;7.336;2023-03-13T01:07:07;8.00;;;7.70;;
12288;SDS011;6207;49.308;7.336;2023-03-13T01:09:34;9.97;;;9.27;;
12288;SDS011;6207;49.308;7.336;2023-03-13T01:12:01;8.63;;;8.07;;
12288;SDS011;6207;49.308;7.336;2023-03-13T01:14:27;8.47;;;7.80;;
12288;SDS011;6207;49.308;7.336;2023-03-13T01:16:54;7.20;;;6.90;;
12288;SDS011;6207;49.308;7.336;2023-03-13T01:19:21;21.20;;;7.93;;
12288;SDS011;6207;49.308;7.336;2023-03-13T01:21:47;7.83;;;7.37;;
12288;SDS011;6207;49.308;7.336;2023-03-13T01:24:14;8.23;;;7.53;;
12288;SDS011;6207;49.308;7.336;2023-03-13T01:26:42;6.17;;;5.90;;
12288;SDS011;6207;49.308;7.336;2023-03-13T01:29:08;6.63;;;6.33;;
12288;SDS011;6207;49.308;7.336;2023-03-13T01:31:35;6.27;;;5.77;;
12288;SDS011;6207;49.308;7.336;2023-03-13T01:34:03;5.50;;;5.20;;
12288;SDS011;6207;49.308;7.336;2023-03-13T01:36:31;5.73;;;5.50;;
12288;SDS011;6207;49.308;7.336;2023-03-13T01:39:00;5.60;;;5.30;;
12288;SDS011;6207;49.308;7.336;2023-03-13T01:41:27;7.13;;;5.23;;
12288;SDS011;6207;49.308;7.336;2023-03-13T01:43:55;5.00;;;4.70;;
12288;SDS011;6207;49.308;7.336;2023-03-13T01:46:23;4.57;;;4.37;;
12288;SDS011;6207;49.308;7.336;2023-03-13T01:49:08;5.60;;;5.17;;
12288;SDS011;6207;49.308;7.336;2023-03-13T01:51:37;4.90;;;4.50;;
12288;SDS011;6207;49.308;7.336;2023-03-13T01:54:14;4.83;;;4.23;;
12288;SDS011;6207;49.308;7.336;2023-03-13T01:56:47;4.20;;;4.00;;
12288;SDS011;6207;49.308;7.336;2023-03-13T01:59:30;4.97;;;4.67;;
12288;SDS011;6207;49.308;7.336;2023-03-13T02:02:02;5.10;;;4.70;;
12288;SDS011;6207;49.308;7.336;2023-03-13T02:04:32;4.50;;;4.20;;
12288;SDS011;6207;49.308;7.336;2023-03-13T02:07:04;4.40;;;4.00;;
12288;SDS011;6207;49.308;7.336;2023-03-13T02:09:48;3.17;;;2.97;;
12288;SDS011;6207;49.308;7.336;2023-03-13T02:12:23;2.80;;;2.70;;
12288;SDS011;6207;49.308;7.336;2023-03-13T02:14:56;2.93;;;2.57;;
12288;SDS011;6207;49.308;7.336;2023-03-13T02:17:26;3.20;;;2.77;;
12288;SDS011;6207;49.308;7.336;2023-03-13T02:19:54;3.10;;;2.50;;
12288;SDS011;6207;49.308;7.336;2023-03-13T02:22:27;2.97;;;2.67;;
12288;SDS011;6207;49.308;7.336;2023-03-13T02:31:00;2.43;;;2.27;;
12288;SDS011;6207;49.308;7.336;2023-03-13T02:33:32;4.13;;;2.10;;
12288;SDS011;6207;49.308;7.336;2023-03-13T02:36:02;3.20;;;2.60;;
12288;SDS011;6207;49.308;7.336;2023-03-13T02:38:30;2.73;;;2.53;;
12288;SDS011;6207;49.308;7.336;2023-03-13T02:41:00;2.90;;;2.63;;
12288;SDS011;6207;49.308;7.336;2023-03-13T02:43:31;4.87;;;2.53;;
12288;SDS011;6207;49.308;7.336;2023-03-13T02:46:09;6.33;;;2.93;;
12288;SDS011;6207;49.308;7.336;2023-03-13T02:48:38;5.27;;;2.17;;
12288;SDS011;6207;49.308;7.336;2023-03-13T02:51:17;1.80;;;1.70;;
12288;SDS011;6207;49.308;7.336;2023-03-13T02:53:52;1.73;;;1.63;;
12288;SDS011;6207;49.308;7.336;2023-03-13T02:56:24;3.03;;;2.07;;
12288;SDS011;6207;49.308;7.336;2023-03-13T02:58:52;2.20;;;2.10;;
12288;SDS011;6207;49.308;7.336;2023-03-13T03:01:18;2.60;;;1.73;;
12288;SDS011;6207;49.308;7.336;2023-03-13T03:03:45;1.97;;;1.80;;
12288;SDS011;6207;49.308;7.336;2023-03-13T03:06:12;1.40;;;1.30;;
12288;SDS011;6207;49.308;7.336;2023-03-13T03:08:39;2.10;;;1.73;;
12288;SDS011;6207;49.308;7.336;2023-03-13T03:11:07;2.30;;;1.70;;
12288;SDS011;6207;49.308;7.336;2023-03-13T03:13:33;3.47;;;2.27;;
12288;SDS011;6207;49.308;7.336;2023-03-13T03:16:05;7.50;;;2.27;;
12288;SDS011;6207;49.308;7.336;2023-03-13T03:18:36;2.23;;;2.13;;
12288;SDS011;6207;49.308;7.336;2023-03-13T03:21:03;2.30;;;2.20;;
12288;SDS011;6207;49.308;7.336;2023-03-13T03:23:32;2.00;;;1.90;;
12288;SDS011;6207;49.308;7.336;2023-03-13T03:25:59;1.63;;;1.53;;
12288;SDS011;6207;49.308;7.336;2023-03-13T03:28:27;2.00;;;1.90;;
12288;SDS011;6207;49.308;7.336;2023-03-13T03:30:54;2.57;;;2.37;;
12288;SDS011;6207;49.308;7.336;2023-03-13T03:33:21;1.70;;;1.60;;
12288;SDS011;6207;49.308;7.336;2023-03-13T03:35:49;3.30;;;2.70;;
12288;SDS011;6207;49.308;7.336;2023-03-13T03:38:16;3.60;;;2.13;;
12288;SDS011;6207;49.308;7.336;2023-03-13T03:40:43;2.23;;;2.03;;
12288;SDS011;6207;49.308;7.336;2023-03-13T03:43:09;2.37;;;2.27;;
12288;SDS011;6207;49.308;7.336;2023-03-13T03:45:36;1.80;;;1.70;;
12288;SDS011;6207;49.308;7.336;2023-03-13T03:48:03;2.40;;;2.20;;
12288;SDS011;6207;49.308;7.336;2023-03-13T03:50:30;2.93;;;2.07;;
12288;SDS011;6207;49.308;7.336;2023-03-13T03:52:56;2.67;;;1.77;;
12288;SDS011;6207;49.308;7.336;2023-03-13T03:55:23;6.13;;;2.70;;
12288;SDS011;6207;49.308;7.336;2023-03-13T03:57:50;4.53;;;2.60;;
12288;SDS011;6207;49.308;7.336;2023-03-13T04:00:17;3.10;;;2.00;;
12288;SDS011;6207;49.308;7.336;2023-03-13T04:02:47;3.03;;;2.53;;
12288;SDS011;6207;49.308;7.336;2023-03-13T04:05:14;4.20;;;3.47;;
12288;SDS011;6207;49.308;7.336;2023-03-13T04:07:41;3.03;;;2.77;;
12288;SDS011;6207;49.308;7.336;2023-03-13T04:10:08;8.47;;;3.30;;
12288;SDS011;6207;49.308;7.336;2023-03-13T04:12:35;2.80;;;2.60;;
12288;SDS011;6207;49.308;7.336;2023-03-13T04:15:02;2.80;;;2.57;;
12288;SDS011;6207;49.308;7.336;2023-03-13T04:17:29;4.87;;;3.03;;
12288;SDS011;6207;49.308;7.336;2023-03-13T04:19:56;3.03;;;2.83;;
12288;SDS011;6207;49.308;7.336;2023-03-13T04:22:22;3.40;;;3.10;;
12288;SDS011;6207;49.308;7.336;2023-03-13T04:24:49;2.27;;;2.17;;
12288;SDS011;6207;49.308;7.336;2023-03-13T04:27:16;3.00;;;2.70;;
12288;SDS011;6207;49.308;7.336;2023-03-13T04:29:43;2.97;;;2.77;;
12288;SDS011;6207;49.308;7.336;2023-03-13T04:32:10;3.43;;;2.97;;
12288;SDS011;6207;49.308;7.336;2023-03-13T04:34:36;3.17;;;2.97;;
12288;SDS011;6207;49.308;7.336;2023-03-13T04:37:03;3.20;;;2.87;;
12288;SDS011;6207;49.308;7.336;2023-03-13T04:39:30;3.93;;;3.53;;
12288;SDS011;6207;49.308;7.336;2023-03-13T04:41:58;2.40;;;2.30;;
12288;SDS011;6207;49.308;7.336;2023-03-13T04:44:25;3.07;;;2.87;;
12288;SDS011;6207;49.308;7.336;2023-03-13T04:46:51;2.77;;;2.57;;
12288;SDS011;6207;49.308;7.336;2023-03-13T04:49:18;2.23;;;2.13;;
12288;SDS011;6207;49.308;7.336;2023-03-13T04:51:45;5.60;;;2.50;;
12288;SDS011;6207;49.308;7.336;2023-03-13T04:54:12;5.53;;;2.87;;
12288;SDS011;6207;49.308;7.336;2023-03-13T04:56:39;2.60;;;2.40;;
12288;SDS011;6207;49.308;7.336;2023-03-13T04:59:12;4.53;;;2.50;;
12288;SDS011;6207;49.308;7.336;2023-03-13T05:01:40;2.07;;;1.87;;
12288;SDS011;6207;49.308;7.336;2023-03-13T05:04:08;2.30;;;2.10;;
12288;SDS011;6207;49.308;7.336;2023-03-13T05:06:35;2.97;;;2.50;;
12288;SDS011;6207;49.308;7.336;2023-03-13T05:09:02;2.07;;;1.87;;
12288;SDS011;6207;49.308;7.336;2023-03-13T05:11:29;1.87;;;1.77;;
12288;SDS011;6207;49.308;7.336;2023-03-13T05:13:56;3.77;;;2.43;;
12288;SDS011;6207;49.308;7.336;2023-03-13T05:16:23;3.23;;;2.60;;
12288;SDS011;6207;49.308;7.336;2023-03-13T05:18:50;2.03;;;1.83;;
12288;SDS011;6207;49.308;7.336;2023-03-13T05:21:16;2.33;;;2.13;;
12288;SDS011;6207;49.308;7.336;2023-03-13T05:23:43;2.77;;;2.57;;
12288;SDS011;6207;49.308;7.336;2023-03-13T05:26:10;2.37;;;2.17;;
12288;SDS011;6207;49.308;7.336;2023-03-13T05:28:37;2.30;;;2.10;;
12288;SDS011;6207;49.308;7.336;2023-03-13T05:31:03;2.70;;;2.50;;
12288;SDS011;6207;49.308;7.336;2023-03-13T05:33:30;2.97;;;1.80;;
12288;SDS011;6207;49.308;7.336;2023-03-13T05:35:57;2.07;;;1.87;;
12288;SDS011;6207;49.308;7.336;2023-03-13T05:38:24;1.80;;;1.70;;
12288;SDS011;6207;49.308;7.336;2023-03-13T05:40:51;3.00;;;2.70;;
12288;SDS011;6207;49.308;7.336;2023-03-13T05:43:17;2.57;;;2.37;;
12288;SDS011;6207;49.308;7.336;2023-03-13T05:45:44;2.67;;;2.47;;
12288;SDS011;6207;49.308;7.336;2023-03-13T05:48:11;1.83;;;1.73;;
12288;SDS011;6207;49.308;7.336;2023-03-13T05:50:37;2.53;;;2.37;;
12288;SDS011;6207;49.308;7.336;2023-03-13T05:53:04;1.67;;;1.57;;
12288;SDS011;6207;49.308;7.336;2023-03-13T05:55:31;2.60;;;2.23;;
12288;SDS011;6207;49.308;7.336;2023-03-13T05:57:58;1.93;;;1.73;;
12288;SDS011;6207;49.308;7.336;2023-03-13T06:00:25;3.53;;;2.43;;
12288;SDS011;6207;49.308;7.336;2023-03-13T06:02:51;4.67;;;2.60;;
12288;SDS011;6207;49.308;7.336;2023-03-13T06:05:18;2.00;;;1.90;;
12288;SDS011;6207;49.308;7.336;2023-03-13T06:07:45;2.30;;;2.10;;
12288;SDS011;6207;49.308;7.336;2023-03-13T06:10:12;1.67;;;1.57;;
12288;SDS011;6207;49.308;7.336;2023-03-13T06:12:38;1.90;;;1.70;;
12288;SDS011;6207;49.308;7.336;2023-03-13T06:15:05;3.03;;;2.73;;
12288;SDS011;6207;49.308;7.336;2023-03-13T06:17:37;3.70;;;2.47;;
12288;SDS011;6207;49.308;7.336;2023-03-13T06:20:04;2.40;;;2.20;;
12288;SDS011;6207;49.308;7.336;2023-03-13T06:22:31;2.43;;;2.23;;
12288;SDS011;6207;49.308;7.336;2023-03-13T06:24:57;2.80;;;2.50;;
12288;SDS011;6207;49.308;7.336;2023-03-13T06:27:24;2.23;;;2.10;;
12288;SDS011;6207;49.308;7.336;2023-03-13T06:29:51;2.70;;;2.50;;
12288;SDS011;6207;49.308;7.336;2023-03-13T06:32:18;2.80;;;2.60;;
12288;SDS011;6207;49.308;7.336;2023-03-13T06:34:45;3.30;;;3.00;;
12288;SDS011;6207;49.308;7.336;2023-03-13T06:37:11;2.10;;;2.00;;
12288;SDS011;6207;49.308;7.336;2023-03-13T06:39:38;3.50;;;3.07;;
12288;SDS011;6207;49.308;7.336;2023-03-13T06:42:05;3.73;;;3.43;;
12288;SDS011;6207;49.308;7.336;2023-03-13T06:44:32;4.77;;;4.10;;
12288;SDS011;6207;49.308;7.336;2023-03-13T06:46:58;5.70;;;3.77;;
12288;SDS011;6207;49.308;7.336;2023-03-13T06:49:25;3.67;;;3.40;;
12288;SDS011;6207;49.308;7.336;2023-03-13T06:51:52;3.23;;;3.03;;
12288;SDS011;6207;49.308;7.336;2023-03-13T06:54:18;3.43;;;3.23;;
12288;SDS011;6207;49.308;7.336;2023-03-13T06:56:45;3.50;;;3.30;;
12288;SDS011;6207;49.308;7.336;2023-03-13T06:59:12;2.67;;;2.57;;
12288;SDS011;6207;49.308;7.336;2023-03-13T07:01:39;3.43;;;3.23;;
12288;SDS011;6207;49.308;7.336;2023-03-13T07:04:07;3.07;;;2.87;;
12288;SDS011;6207;49.308;7.336;2023-03-13T07:06:38;3.77;;;3.47;;
12288;SDS011;6207;49.308;7.336;2023-03-13T07:09:04;4.10;;;3.80;;
12288;SDS011;6207;49.308;7.336;2023-03-13T07:11:31;3.50;;;3.30;;
12288;SDS011;6207;49.308;7.336;2023-03-13T07:13:58;4.40;;;4.00;;
12288;SDS011;6207;49.308;7.336;2023-03-13T07:16:41;3.80;;;3.60;;
12288;SDS011;6207;49.308;7.336;2023-03-13T07:19:08;4.07;;;3.77;;
12288;SDS011;6207;49.308;7.336;2023-03-13T07:21:35;3.27;;;3.07;;
12288;SDS011;6207;49.308;7.336;2023-03-13T07:24:02;3.57;;;3.37;;
12288;SDS011;6207;49.308;7.336;2023-03-13T07:26:29;7.13;;;4.60;;
12288;SDS011;6207;49.308;7.336;2023-03-13T07:28:56;3.60;;;3.40;;
12288;SDS011;6207;49.308;7.336;2023-03-13T07:31:23;3.30;;;3.10;;
12288;SDS011;6207;49.308;7.336;2023-03-13T07:33:50;3.90;;;3.60;;
12288;SDS011;6207;49.308;7.336;2023-03-13T07:36:21;3.40;;;3.20;;
12288;SDS011;6207;49.308;7.336;2023-03-13T07:38:48;3.93;;;3.63;;
12288;SDS011;6207;49.308;7.336;2023-03-13T07:41:16;4.63;;;4.30;;
12288;SDS011;6207;49.308;7.336;2023-03-13T07:43:44;3.70;;;3.40;;
12288;SDS011;6207;49.308;7.336;2023-03-13T07:46:12;3.53;;;3.33;;
12288;SDS011;6207;49.308;7.336;2023-03-13T07:48:41;4.40;;;4.10;;
12288;SDS011;6207;49.308;7.336;2023-03-13T07:51:15;6.10;;;4.90;;
12288;SDS011;6207;49.308;7.336;2023-03-13T07:53:48;3.97;;;3.70;;
12288;SDS011;6207;49.308;7.336;2023-03-13T07:56:16;3.37;;;3.17;;
12288;SDS011;6207;49.308;7.336;2023-03-13T07:58:45;3.57;;;3.33;;
12288;SDS011;6207;49.308;7.336;2023-03-13T08:01:13;3.63;;;3.33;;
12288;SDS011;6207;49.308;7.336;2023-03-13T08:03:54;4.90;;;4.40;;
12288;SDS011;6207;49.308;7.336;2023-03-13T08:06:22;4.67;;;3.90;;
12288;SDS011;6207;49.308;7.336;2023-03-13T08:08:50;3.90;;;3.47;;
12288;SDS011;6207;49.308;7.336;2023-03-13T08:11:20;4.20;;;3.90;;
12288;SDS011;6207;49.308;7.336;2023-03-13T08:13:47;4.57;;;4.17;;
12288;SDS011;6207;49.308;7.336;2023-03-13T08:16:18;3.93;;;3.67;;
12288;SDS011;6207;49.308;7.336;2023-03-13T08:18:47;4.17;;;3.97;;
12288;SDS011;6207;49.308;7.336;2023-03-13T08:21:15;4.50;;;4.13;;
12288;SDS011;6207;49.308;7.336;2023-03-13T08:23:46;6.53;;;4.83;;
12288;SDS011;6207;49.308;7.336;2023-03-13T08:26:15;4.97;;;4.67;;
12288;SDS011;6207;49.308;7.336;2023-03-13T08:28:43;5.23;;;4.83;;
12288;SDS011;6207;49.308;7.336;2023-03-13T08:31:15;5.03;;;4.73;;
12288;SDS011;6207;49.308;7.336;2023-03-13T08:33:44;5.13;;;4.83;;
12288;SDS011;6207;49.308;7.336;2023-03-13T08:36:14;4.80;;;4.50;;
12288;SDS011;6207;49.308;7.336;2023-03-13T08:38:43;6.30;;;5.70;;
12288;SDS011;6207;49.308;7.336;2023-03-13T08:41:15;4.43;;;4.23;;
12288;SDS011;6207;49.308;7.336;2023-03-13T08:43:44;4.60;;;4.33;;
12288;SDS011;6207;49.308;7.336;2023-03-13T08:46:12;4.30;;;4.07;;
12288;SDS011;6207;49.308;7.336;2023-03-13T08:48:40;5.20;;;4.67;;
12288;SDS011;6207;49.308;7.336;2023-03-13T08:51:08;4.07;;;3.87;;
12288;SDS011;6207;49.308;7.336;2023-03-13T08:53:38;5.83;;;4.77;;
12288;SDS011;6207;49.308;7.336;2023-03-13T08:56:06;4.40;;;4.00;;
12288;SDS011;6207;49.308;7.336;2023-03-13T08:58:34;4.77;;;4.47;;
12288;SDS011;6207;49.308;7.336;2023-03-13T09:01:02;5.17;;;4.77;;
12288;SDS011;6207;49.308;7.336;2023-03-13T09:03:31;5.00;;;4.60;;
12288;SDS011;6207;49.308;7.336;2023-03-13T09:05:58;4.57;;;4.27;;
12288;SDS011;6207;49.308;7.336;2023-03-13T09:08:26;5.40;;;4.90;;
12288;SDS011;6207;49.308;7.336;2023-03-13T09:10:54;4.67;;;4.43;;
12288;SDS011;6207;49.308;7.336;2023-03-13T09:13:25;4.63;;;4.23;;
12288;SDS011;6207;49.308;7.336;2023-03-13T09:16:14;6.83;;;5.37;;
12288;SDS011;6207;49.308;7.336;2023-03-13T09:18:44;4.80;;;4.50;;
12288;SDS011;6207;49.308;7.336;2023-03-13T09:21:12;5.07;;;4.77;;
12288;SDS011;6207;49.308;7.336;2023-03-13T09:23:47;5.77;;;5.47;;
12288;SDS011;6207;49.308;7.336;2023-03-13T09:26:14;5.37;;;5.07;;
12288;SDS011;6207;49.308;7.336;2023-03-13T09:28:41;5.53;;;5.13;;
12288;SDS011;6207;49.308;7.336;2023-03-13T09:31:12;5.20;;;5.00;;
12288;SDS011;6207;49.308;7.336;2023-03-13T09:33:41;5.93;;;5.53;;
12288;SDS011;6207;49.308;7.336;2023-03-13T09:36:09;5.77;;;5.37;;
12288;SDS011;6207;49.308;7.336;2023-03-13T09:38:37;5.50;;;5.20;;
12288;SDS011;6207;49.308;7.336;2023-03-13T09:41:19;5.00;;;4.80;;
12288;SDS011;6207;49.308;7.336;2023-03-13T09:49:24;5.73;;;5.43;;
12288;SDS011;6207;49.308;7.336;2023-03-13T09:52:04;5.80;;;5.60;;
12288;SDS011;6207;49.308;7.336;2023-03-13T09:54:45;5.60;;;5.40;;
12288;SDS011;6207;49.308;7.336;2023-03-13T10:00:04;6.20;;;5.90;;
12288;SDS011;6207;49.308;7.336;2023-03-13T10:02:43;6.30;;;6.00;;
12288;SDS011;6207;49.308;7.336;2023-03-13T10:05:14;6.57;;;6.07;;
12288;SDS011;6207;49.308;7.336;2023-03-13T10:07:42;5.87;;;5.67;;
12288;SDS011;6207;49.308;7.336;2023-03-13T10:10:16;6.83;;;6.43;;
12288;SDS011;6207;49.308;7.336;2023-03-13T10:12:56;6.73;;;6.43;;
12288;SDS011;6207;49.308;7.336;2023-03-13T10:15:41;10.65;;;10.20;;
12288;SDS011;6207;49.308;7.336;2023-03-13T10:18:16;8.07;;;7.78;;
12288;SDS011;6207;49.308;7.336;2023-03-13T10:20:48;7.80;;;7.50;;
12288;SDS011;6207;49.308;7.336;2023-03-13T10:26:14;8.88;;;8.30;;
12288;SDS011;6207;49.308;7.336;2023-03-13T10:28:44;7.97;;;7.57;;
12288;SDS011;6207;49.308;7.336;2023-03-13T10:31:13;7.93;;;7.60;;
12288;SDS011;6207;49.308;7.336;2023-03-13T10:33:49;7.80;;;7.50;;
12288;SDS011;6207;49.308;7.336;2023-03-13T10:36:16;8.00;;;7.70;;
12288;SDS011;6207;49.308;7.336;2023-03-13T10:41:56;7.75;;;7.45;;
12288;SDS011;6207;49.308;7.336;2023-03-13T10:44:05;8.52;;;8.07;;
12288;SDS011;6207;49.308;7.336;2023-03-13T10:46:41;8.18;;;7.78;;
12288;SDS011;6207;49.308;7.336;2023-03-13T10:49:16;8.40;;;8.00;;
12288;SDS011;6207;49.308;7.336;2023-03-13T10:51:49;8.63;;;8.23;;
12288;SDS011;6207;49.308;7.336;2023-03-13T10:54:20;8.30;;;7.97;;
12288;SDS011;6207;49.308;7.336;2023-03-13T10:59:44;9.15;;;8.70;;
12288;SDS011;6207;49.308;7.336;2023-03-13T11:02:24;9.00;;;8.60;;
12288;SDS011;6207;49.308;7.336;2023-03-13T11:04:52;9.10;;;8.70;;
12288;SDS011;6207;49.308;7.336;2023-03-13T11:07:29;9.68;;;9.18;;
12288;SDS011;6207;49.308;7.336;2023-03-13T11:10:22;9.30;;;8.70;;
12288;SDS011;6207;49.308;7.336;2023-03-13T11:12:54;9.65;;;9.15;;
12288;SDS011;6207;49.308;7.336;2023-03-13T11:18:00;8.75;;;8.35;;
12288;SDS011;6207;49.308;7.336;2023-03-13T11:20:40;8.90;;;8.50;;
12288;SDS011;6207;49.308;7.336;2023-03-13T11:23:19;9.07;;;8.68;;
12288;SDS011;6207;49.308;7.336;2023-03-13T11:26:27;9.60;;;8.98;;
12288;SDS011;6207;49.308;7.336;2023-03-13T11:29:08;9.00;;;8.60;;
12288;SDS011;6207;49.308;7.336;2023-03-13T11:31:50;8.98;;;8.57;;
12288;SDS011;6207;49.308;7.336;2023-03-13T11:34:30;9.43;;;9.02;;
12288;SDS011;6207;49.308;7.336;2023-03-13T11:37:10;10.20;;;9.60;;
12288;SDS011;6207;49.308;7.336;2023-03-13T11:42:21;9.50;;;9.10;;
12288;SDS011;6207;49.308;7.336;2023-03-13T11:45:16;9.68;;;9.18;;
12288;SDS011;6207;49.308;7.336;2023-03-13T11:48:17;9.95;;;9.45;;
12288;SDS011;6207;49.308;7.336;2023-03-13T11:54:03;10.20;;;9.80;;
12288;SDS011;6207;49.308;7.336;2023-03-13T11:57:04;9.50;;;9.10;;
12288;SDS011;6207;49.308;7.336;2023-03-13T11:59:34;9.57;;;9.02;;
12288;SDS011;6207;49.308;7.336;2023-03-13T12:02:34;10.18;;;9.57;;
12288;SDS011;6207;49.308;7.336;2023-03-13T12:05:06;9.90;;;9.50;;
12288;SDS011;6207;49.308;7.336;2023-03-13T12:10:15;10.57;;;10.07;;
12288;SDS011;6207;49.308;7.336;2023-03-13T12:13:06;10.18;;;9.77;;
12288;SDS011;6207;49.308;7.336;2023-03-13T12:15:41;10.68;;;10.18;;
12288;SDS011;6207;49.308;7.336;2023-03-13T12:26:20;10.15;;;9.63;;
12288;SDS011;6207;49.308;7.336;2023-03-13T12:31:48;10.70;;;10.20;;
12288;SDS011;6207;49.308;7.336;2023-03-13T12:34:29;10.88;;;10.27;;
12288;SDS011;6207;49.308;7.336;2023-03-13T12:37:40;9.90;;;9.50;;
12288;SDS011;6207;49.308;7.336;2023-03-13T12:42:54;9.88;;;9.48;;
12288;SDS011;6207;49.308;7.336;2023-03-13T12:45:26;10.55;;;10.05;;
12288;SDS011;6207;49.308;7.336;2023-03-13T12:59:01;10.48;;;10.07;;
12288;SDS011;6207;49.308;7.336;2023-03-13T13:01:33;10.80;;;10.20;;
12288;SDS011;6207;49.308;7.336;2023-03-13T13:04:10;11.10;;;10.50;;
12288;SDS011;6207;49.308;7.336;2023-03-13T13:06:49;10.70;;;10.20;;
12288;SDS011;6207;49.308;7.336;2023-03-13T13:09:57;11.68;;;11.07;;
12288;SDS011;6207;49.308;7.336;2023-03-13T13:12:38;10.63;;;10.07;;
12288;SDS011;6207;49.308;7.336;2023-03-13T13:15:20;10.68;;;10.18;;
12288;SDS011;6207;49.308;7.336;2023-03-13T13:23:31;10.60;;;10.20;;
12288;SDS011;6207;49.308;7.336;2023-03-13T13:28:52;10.38;;;9.98;;
12288;SDS011;6207;49.308;7.336;2023-03-13T13:39:44;11.00;;;10.50;;
12288;SDS011;6207;49.308;7.336;2023-03-13T13:45:01;10.80;;;10.30;;
12288;SDS011;6207;49.308;7.336;2023-03-13T13:47:30;11.02;;;10.43;;
12288;SDS011;6207;49.308;7.336;2023-03-13T13:49:59;10.30;;;9.90;;
12288;SDS011;6207;49.308;7.336;2023-03-13T13:55:27;10.50;;;10.00;;
12288;SDS011;6207;49.308;7.336;2023-03-13T13:58:12;10.20;;;9.70;;
12288;SDS011;6207;49.308;7.336;2023-03-13T14:00:59;10.55;;;9.95;;
12288;SDS011;6207;49.308;7.336;2023-03-13T14:03:31;11.05;;;10.45;;
12288;SDS011;6207;49.308;7.336;2023-03-13T14:06:02;10.70;;;10.20;;
12288;SDS011;6207;49.308;7.336;2023-03-13T14:08:40;10.43;;;9.93;;
12288;SDS011;6207;49.308;7.336;2023-03-13T14:13:40;10.60;;;10.20;;
12288;SDS011;6207;49.308;7.336;2023-03-13T14:16:19;10.05;;;9.65;;
12288;SDS011;6207;49.308;7.336;2023-03-13T14:18:50;10.50;;;10.10;;
12288;SDS011;6207;49.308;7.336;2023-03-13T14:21:23;17.10;;;10.68;;
12288;SDS011;6207;49.308;7.336;2023-03-13T14:23:51;10.80;;;10.25;;
12288;SDS011;6207;49.308;7.336;2023-03-13T14:26:25;11.23;;;10.73;;
12288;SDS011;6207;49.308;7.336;2023-03-13T14:28:55;10.23;;;9.82;;
12288;SDS011;6207;49.308;7.336;2023-03-13T14:31:32;10.38;;;9.98;;
12288;SDS011;6207;49.308;7.336;2023-03-13T14:34:05;10.82;;;10.32;;
12288;SDS011;6207;49.308;7.336;2023-03-13T14:36:55;10.52;;;10.05;;
12288;SDS011;6207;49.308;7.336;2023-03-13T14:39:43;9.90;;;9.45;;
12288;SDS011;6207;49.308;7.336;2023-03-13T14:42:11;10.40;;;9.93;;
12288;SDS011;6207;49.308;7.336;2023-03-13T14:44:39;10.18;;;9.73;;
12288;SDS011;6207;49.308;7.336;2023-03-13T14:47:27;10.65;;;10.20;;
12288;SDS011;6207;49.308;7.336;2023-03-13T14:49:56;11.00;;;10.50;;
12288;SDS011;6207;49.308;7.336;2023-03-13T14:52:26;10.77;;;10.27;;
12288;SDS011;6207;49.308;7.336;2023-03-13T14:54:55;10.20;;;9.80;;
12288;SDS011;6207;49.308;7.336;2023-03-13T14:57:24;10.40;;;10.00;;
12288;SDS011;6207;49.308;7.336;2023-03-13T14:59:53;10.60;;;10.20;;
12288;SDS011;6207;49.308;7.336;2023-03-13T15:02:22;11.13;;;10.63;;
12288;SDS011;6207;49.308;7.336;2023-03-13T15:04:55;10.52;;;10.02;;
12288;SDS011;6207;49.308;7.336;2023-03-13T15:07:25;10.77;;;10.15;;
12288;SDS011;6207;49.308;7.336;2023-03-13T15:10:00;7.60;;;7.10;;
12288;SDS011;6207;49.308;7.336;2023-03-13T15:12:27;9.20;;;8.80;;
12288;SDS011;6207;49.308;7.336;2023-03-13T15:14:56;8.80;;;8.40;;
12288;SDS011;6207;49.308;7.336;2023-03-13T15:17:26;7.37;;;7.03;;
12288;SDS011;6207;49.308;7.336;2023-03-13T15:19:55;7.13;;;6.83;;
12288;SDS011;6207;49.308;7.336;2023-03-13T15:22:27;5.50;;;5.30;;
12288;SDS011;6207;49.308;7.336;2023-03-13T15:25:03;5.40;;;5.20;;
12288;SDS011;6207;49.308;7.336;2023-03-13T15:27:39;4.90;;;4.70;;
12288;SDS011;6207;49.308;7.336;2023-03-13T15:30:06;4.40;;;4.20;;
12288;SDS011;6207;49.308;7.336;2023-03-13T15:32:34;3.53;;;3.27;;
12288;SDS011;6207;49.308;7.336;2023-03-13T15:35:46;2.00;;;1.90;;
12288;SDS011;6207;49.308;7.336;2023-03-13T15:37:55;1.60;;;1.50;;
12288;SDS011;6207;49.308;7.336;2023-03-13T15:40:23;1.50;;;1.40;;
12288;SDS011;6207;49.308;7.336;2023-03-13T15:42:52;0.90;;;0.90;;
12288;SDS011;6207;49.308;7.336;2023-03-13T15:45:20;3.03;;;1.30;;
12288;SDS011;6207;49.308;7.336;2023-03-13T15:47:47;1.00;;;1.00;;
12288;SDS011;6207;49.308;7.336;2023-03-13T15:50:15;1.10;;;1.10;;
12288;SDS011;6207;49.308;7.336;2023-03-13T15:52:44;1.93;;;1.60;;
12288;SDS011;6207;49.308;7.336;2023-03-13T15:55:11;1.40;;;1.30;;
12288;SDS011;6207;49.308;7.336;2023-03-13T15:57:45;2.60;;;1.70;;
12288;SDS011;6207;49.308;7.336;2023-03-13T16:02:48;1.17;;;1.17;;
12288;SDS011;6207;49.308;7.336;2023-03-13T16:05:15;4.00;;;1.20;;
12288;SDS011;6207;49.308;7.336;2023-03-13T16:07:42;1.10;;;1.10;;
12288;SDS011;6207;49.308;7.336;2023-03-13T16:10:17;0.97;;;0.97;;
12288;SDS011;6207;49.308;7.336;2023-03-13T16:12:50;0.70;;;0.70;;
12288;SDS011;6207;49.308;7.336;2023-03-13T16:15:17;1.07;;;1.07;;
12288;SDS011;6207;49.308;7.336;2023-03-13T16:17:43;0.80;;;0.80;;
12288;SDS011;6207;49.308;7.336;2023-03-13T16:20:14;2.00;;;1.90;;
12288;SDS011;6207;49.308;7.336;2023-03-13T16:22:45;1.30;;;1.20;;
12288;SDS011;6207;49.308;7.336;2023-03-13T16:25:13;1.10;;;1.10;;
12288;SDS011;6207;49.308;7.336;2023-03-13T16:27:40;2.90;;;1.50;;
12288;SDS011;6207;49.308;7.336;2023-03-13T16:30:24;1.70;;;1.60;;
12288;SDS011;6207;49.308;7.336;2023-03-13T16:32:52;1.50;;;1.40;;
12288;SDS011;6207;49.308;7.336;2023-03-13T16:35:19;2.10;;;2.00;;
12288;SDS011;6207;49.308;7.336;2023-03-13T16:37:46;2.53;;;2.40;;
12288;SDS011;6207;49.308;7.336;2023-03-13T16:40:17;2.40;;;2.30;;
12288;SDS011;6207;49.308;7.336;2023-03-13T16:42:46;2.00;;;1.90;;
12288;SDS011;6207;49.308;7.336;2023-03-13T16:45:13;2.53;;;2.37;;